Time;durP1;ratioP1;P1;durP2;ratioP2;P2;SDS_P1;SDS_P2;PMS_P1;PMS_P2;Temp;Humidity;BMP_temperature;BMP_pressure;BME280_temperature;BME280_humidity;BME280_pressure;Samples;Min_cycle;Max_cycle;Signal;HPM_P1;HPM_P2
2021/07/14 00:02:25;;;;;;;46.00;42.00;;;19.80;99.90;;;;;;5005894;28;20442;-64
2021/07/14 00:04:53;;;;;;;45.27;41.47;;;19.80;99.90;;;;;;4989686;28;20500;-64
2021/07/14 00:07:26;;;;;;;24.67;22.63;;;19.80;99.90;;;;;;5005907;28;20774;-64
2021/07/14 00:09:58;;;;;;;16.43;15.00;;;19.70;99.90;;;;;;4992453;28;20516;-63
2021/07/14 00:12:30;;;;;;;14.27;13.13;;;19.50;99.90;;;;;;5016032;28;20497;-64
2021/07/14 00:15:05;;;;;;;14.70;13.60;;;19.50;99.90;;;;;;5014055;28;20566;-64
2021/07/14 00:17:49;;;;;;;13.60;12.50;;;19.50;99.90;;;;;;5016861;28;20944;-65
2021/07/14 00:23:02;;;;;;;14.13;12.97;;;19.40;99.90;;;;;;5001867;28;20467;-68
2021/07/14 00:25:30;;;;;;;14.23;13.13;;;19.40;99.90;;;;;;5012376;28;20475;-67
2021/07/14 00:28:00;;;;;;;13.37;12.20;;;19.30;99.90;;;;;;5016531;28;20529;-67
2021/07/14 00:30:28;;;;;;;12.73;11.63;;;19.20;99.90;;;;;;5013447;28;20519;-67
2021/07/14 00:32:55;;;;;;;13.27;11.90;;;19.10;99.90;;;;;;4997949;28;20447;-67
2021/07/14 00:35:25;;;;;;;14.43;13.10;;;19.10;99.90;;;;;;4997687;28;20469;-69
2021/07/14 00:37:52;;;;;;;11.17;10.27;;;19.10;99.90;;;;;;4998177;28;20480;-69
2021/07/14 00:40:21;;;;;;;11.03;10.10;;;18.90;99.90;;;;;;5003342;28;20523;-65
2021/07/14 00:42:48;;;;;;;12.83;11.63;;;18.90;99.90;;;;;;4997993;28;20476;-65
2021/07/14 00:45:15;;;;;;;11.30;10.50;;;18.90;99.90;;;;;;5005536;28;20535;-66
2021/07/14 00:47:47;;;;;;;11.30;10.27;;;18.90;99.90;;;;;;5017313;28;20474;-65
2021/07/14 00:50:25;;;;;;;11.17;10.27;;;18.90;99.90;;;;;;5020074;28;20478;-66
2021/07/14 00:52:52;;;;;;;10.20;9.30;;;18.90;99.90;;;;;;5010355;28;20567;-66
2021/07/14 00:55:20;;;;;;;10.73;9.93;;;18.80;99.90;;;;;;5001856;28;20575;-67
2021/07/14 00:57:50;;;;;;;11.13;10.13;;;18.80;99.90;;;;;;5002241;28;20473;-68
2021/07/14 01:00:18;;;;;;;10.47;9.47;;;18.80;99.90;;;;;;5001346;28;20989;-68
2021/07/14 01:02:45;;;;;;;10.90;8.80;;;18.80;99.90;;;;;;5019350;28;20471;-69
2021/07/14 01:05:19;;;;;;;11.40;10.40;;;18.80;99.90;;;;;;5011625;28;20492;-68
2021/07/14 01:07:53;;;;;;;8.57;7.77;;;18.80;99.90;;;;;;4989176;28;20802;-67
2021/07/14 01:10:26;;;;;;;10.20;9.40;;;18.90;99.90;;;;;;4990682;28;20526;-66
2021/07/14 01:13:03;;;;;;;11.00;10.00;;;18.90;99.90;;;;;;5000183;28;20501;-66
2021/07/14 01:15:36;;;;;;;11.03;10.03;;;18.90;99.90;;;;;;5001192;28;20885;-66
2021/07/14 01:18:12;;;;;;;10.60;9.67;;;18.90;99.90;;;;;;5001457;28;20535;-66
2021/07/14 01:20:54;;;;;;;11.50;10.47;;;18.90;99.90;;;;;;5000999;28;20535;-66
2021/07/14 01:23:34;;;;;;;11.07;10.27;;;18.90;99.90;;;;;;5001343;28;20468;-66
2021/07/14 01:26:07;;;;;;;11.93;10.83;;;19.00;99.90;;;;;;4994439;28;20527;-66
2021/07/14 01:28:41;;;;;;;11.47;10.43;;;18.90;99.90;;;;;;4995383;28;20479;-66
2021/07/14 01:31:11;;;;;;;12.03;10.30;;;18.90;99.90;;;;;;5000534;28;20451;-66
2021/07/14 01:33:41;;;;;;;11.93;11.03;;;18.90;99.90;;;;;;5001448;28;20568;-66
2021/07/14 01:36:12;;;;;;;12.70;11.60;;;18.90;99.90;;;;;;5001313;28;20469;-66
2021/07/14 01:38:41;;;;;;;11.40;10.30;;;18.90;99.90;;;;;;5000974;28;20559;-67
2021/07/14 01:41:09;;;;;;;12.27;11.17;;;18.90;99.90;;;;;;4998300;28;20546;-67
2021/07/14 01:43:42;;;;;;;13.43;12.23;;;18.90;99.90;;;;;;5000754;28;20551;-66
2021/07/14 01:46:10;;;;;;;13.50;12.20;;;18.90;99.90;;;;;;5019172;28;20841;-67
2021/07/14 01:48:38;;;;;;;11.80;10.90;;;19.00;99.90;;;;;;5019460;28;20489;-71
2021/07/14 01:51:06;;;;;;;11.70;10.80;;;18.90;99.90;;;;;;5019032;28;20471;-68
2021/07/14 01:53:36;;;;;;;12.40;11.20;;;18.90;99.90;;;;;;5020057;28;20471;-68
2021/07/14 01:56:10;;;;;;;12.00;11.00;;;18.90;99.90;;;;;;5019413;28;20813;-67
2021/07/14 01:58:43;;;;;;;11.23;10.23;;;18.90;99.90;;;;;;5011594;28;20472;-68
2021/07/14 02:01:12;;;;;;;12.20;11.20;;;18.90;99.90;;;;;;4999810;28;20968;-69
2021/07/14 02:03:55;;;;;;;11.67;10.70;;;18.90;99.90;;;;;;4993912;28;20503;-69
2021/07/14 02:06:24;;;;;;;12.27;11.27;;;18.90;99.90;;;;;;4999379;28;20465;-71
2021/07/14 02:08:52;;;;;;;11.60;10.67;;;18.90;99.90;;;;;;4994068;28;20469;-71
2021/07/14 02:11:25;;;;;;;10.87;9.97;;;18.90;99.90;;;;;;5016688;28;20468;-70
2021/07/14 02:13:58;;;;;;;11.40;10.40;;;19.00;99.90;;;;;;5007325;28;20572;-69
2021/07/14 02:16:25;;;;;;;11.80;10.80;;;18.90;99.90;;;;;;4999830;28;20469;-71
2021/07/14 02:18:58;;;;;;;10.73;9.73;;;18.90;99.90;;;;;;5000251;28;20519;-70
2021/07/14 02:21:33;;;;;;;14.30;13.20;;;18.90;99.90;;;;;;4999914;28;20436;-71
2021/07/14 02:24:00;;;;;;;12.73;11.53;;;18.80;99.90;;;;;;4993780;28;20941;-71
2021/07/14 02:26:29;;;;;;;13.87;12.77;;;18.80;99.90;;;;;;4993770;28;20495;-70
2021/07/14 02:28:58;;;;;;;14.27;13.17;;;18.90;99.90;;;;;;5006855;28;20836;-70
2021/07/14 02:31:25;;;;;;;16.37;14.90;;;18.90;99.90;;;;;;4993587;28;20527;-70
2021/07/14 02:33:52;;;;;;;16.00;14.60;;;18.90;99.90;;;;;;5000057;28;20439;-70
2021/07/14 02:36:21;;;;;;;17.80;16.33;;;18.90;99.90;;;;;;4993735;28;20443;-69
2021/07/14 02:38:56;;;;;;;15.80;14.50;;;19.00;99.90;;;;;;4999752;28;20453;-71
2021/07/14 02:41:29;;;;;;;17.33;15.90;;;19.00;99.90;;;;;;4995444;28;20472;-71
2021/07/14 02:44:04;;;;;;;17.40;16.00;;;19.00;99.90;;;;;;4999592;28;20522;-70
2021/07/14 02:46:34;;;;;;;17.10;15.50;;;19.00;99.90;;;;;;5000184;28;20869;-69
2021/07/14 02:49:06;;;;;;;18.20;16.60;;;19.00;99.90;;;;;;4999789;28;20473;-72
2021/07/14 02:51:35;;;;;;;17.80;16.00;;;19.00;99.90;;;;;;4999869;28;20468;-72
2021/07/14 02:54:05;;;;;;;18.13;16.50;;;19.00;99.90;;;;;;4999899;28;20778;-71
2021/07/14 02:56:34;;;;;;;18.13;16.73;;;18.90;99.90;;;;;;4999905;28;20474;-69
2021/07/14 02:59:08;;;;;;;17.57;15.97;;;18.90;99.90;;;;;;4999146;28;20484;-70
2021/07/14 03:01:40;;;;;;;18.53;17.00;;;18.90;99.90;;;;;;4999319;28;20452;-70
2021/07/14 03:04:09;;;;;;;16.83;15.43;;;18.90;99.90;;;;;;4985889;28;20504;-70
2021/07/14 03:06:38;;;;;;;19.00;17.40;;;18.80;99.90;;;;;;4990619;28;20465;-70
2021/07/14 03:09:08;;;;;;;17.47;15.97;;;18.90;99.90;;;;;;4995228;28;20444;-72
2021/07/14 03:11:37;;;;;;;15.67;14.37;;;18.80;99.90;;;;;;4996361;28;20469;-71
2021/07/14 03:14:11;;;;;;;15.33;14.03;;;18.80;99.90;;;;;;4979989;28;20516;-70
2021/07/14 03:16:40;;;;;;;14.50;13.27;;;18.90;99.90;;;;;;4979697;28;20464;-71
2021/07/14 03:19:08;;;;;;;12.90;11.80;;;18.90;99.90;;;;;;4980020;28;20466;-72
2021/07/14 03:21:36;;;;;;;12.80;11.80;;;18.80;99.90;;;;;;4979394;28;20524;-73
2021/07/14 03:24:07;;;;;;;13.87;12.67;;;18.80;99.90;;;;;;4980092;28;20927;-74
2021/07/14 03:26:37;;;;;;;10.93;10.03;;;18.90;99.90;;;;;;4979546;28;20552;-70
2021/07/14 03:29:05;;;;;;;11.67;10.77;;;18.80;99.90;;;;;;4979458;28;20473;-71
2021/07/14 03:31:34;;;;;;;10.40;9.60;;;18.90;99.90;;;;;;4979431;28;20645;-71
2021/07/14 03:34:04;;;;;;;10.87;10.07;;;18.90;99.90;;;;;;4998053;28;20472;-70
2021/07/14 03:36:32;;;;;;;7.93;7.33;;;18.90;99.90;;;;;;4997522;28;20490;-71
2021/07/14 03:38:59;;;;;;;10.67;9.80;;;18.80;99.90;;;;;;4989297;28;20480;-72
2021/07/14 03:41:27;;;;;;;8.20;7.50;;;18.90;99.90;;;;;;4979062;28;20469;-70
2021/07/14 03:43:56;;;;;;;8.47;7.77;;;18.80;99.90;;;;;;4979236;28;20905;-71
2021/07/14 03:46:27;;;;;;;7.10;6.50;;;18.80;99.90;;;;;;4978829;28;20573;-72
2021/07/14 03:48:56;;;;;;;6.87;6.37;;;18.80;99.90;;;;;;4979779;28;20458;-71
2021/07/14 03:51:24;;;;;;;6.30;5.80;;;18.80;99.90;;;;;;4979313;28;20468;-72
2021/07/14 03:53:52;;;;;;;6.47;5.87;;;18.80;99.90;;;;;;4979222;28;20474;-72
2021/07/14 03:56:26;;;;;;;6.53;6.03;;;18.80;99.90;;;;;;4979424;28;20849;-71
2021/07/14 03:58:55;;;;;;;6.50;6.00;;;18.70;99.90;;;;;;4979296;28;20862;-71
2021/07/14 04:01:23;;;;;;;6.60;5.27;;;18.70;99.90;;;;;;4978552;28;20973;-71
2021/07/14 04:03:52;;;;;;;5.37;4.97;;;18.80;99.90;;;;;;4970739;28;20529;-72
2021/07/14 04:06:22;;;;;;;5.83;5.33;;;18.90;99.90;;;;;;4978084;28;20858;-73
2021/07/14 04:09:19;;;;;;;5.93;5.33;;;18.80;99.90;;;;;;4978992;28;20457;-74
2021/07/14 04:11:47;;;;;;;4.97;4.57;;;18.80;99.90;;;;;;4985357;28;20443;-72
2021/07/14 04:14:14;;;;;;;5.40;5.00;;;18.80;99.90;;;;;;5011433;28;20796;-75
2021/07/14 04:16:41;;;;;;;5.53;5.13;;;18.80;99.90;;;;;;5017025;28;20471;-71
2021/07/14 04:19:08;;;;;;;4.73;4.33;;;18.80;99.90;;;;;;5014506;28;20721;-70
2021/07/14 04:21:40;;;;;;;4.37;3.97;;;18.90;99.90;;;;;;4998154;28;20463;-73
2021/07/14 04:24:07;;;;;;;5.17;4.77;;;18.80;99.90;;;;;;5007603;28;20459;-72
2021/07/14 04:26:35;;;;;;;4.90;4.50;;;18.80;99.90;;;;;;5014417;28;20543;-73
2021/07/14 04:29:02;;;;;;;5.33;4.83;;;18.70;99.90;;;;;;4998569;28;20543;-71
2021/07/14 04:31:31;;;;;;;5.67;5.17;;;18.70;99.90;;;;;;4997449;28;20475;-74
2021/07/14 04:33:58;;;;;;;6.73;6.13;;;18.80;99.90;;;;;;4990605;28;20475;-72
2021/07/14 04:36:25;;;;;;;7.97;7.27;;;18.70;99.90;;;;;;4998604;28;20775;-73
2021/07/14 04:38:57;;;;;;;7.90;7.30;;;18.70;99.90;;;;;;4997691;28;20896;-68
2021/07/14 04:41:27;;;;;;;8.77;7.97;;;18.70;99.90;;;;;;4998095;28;20472;-74
2021/07/14 04:43:56;;;;;;;8.60;7.90;;;18.70;99.90;;;;;;4997927;28;20575;-73
2021/07/14 04:46:23;;;;;;;9.20;8.30;;;18.70;99.90;;;;;;4998070;28;20484;-72
2021/07/14 04:48:50;;;;;;;10.07;9.27;;;18.70;99.90;;;;;;4997341;28;20476;-71
2021/07/14 04:51:17;;;;;;;9.07;8.30;;;18.70;99.90;;;;;;4997814;28;20503;-68
2021/07/14 04:53:44;;;;;;;8.50;7.80;;;18.70;99.90;;;;;;5001338;28;20586;-72
2021/07/14 04:56:16;;;;;;;9.90;9.00;;;18.70;99.90;;;;;;5016752;28;20464;-70
2021/07/14 04:58:43;;;;;;;9.00;8.30;;;18.70;99.90;;;;;;4999586;28;20542;-70
2021/07/14 05:01:10;;;;;;;9.40;8.70;;;18.70;99.90;;;;;;4996966;28;20530;-70
2021/07/14 05:03:37;;;;;;;10.17;9.27;;;18.60;99.90;;;;;;4991295;28;20468;-69
2021/07/14 05:06:04;;;;;;;10.73;9.90;;;18.70;99.90;;;;;;4994150;28;20508;-69
2021/07/14 05:08:31;;;;;;;12.43;11.33;;;18.70;99.90;;;;;;4997440;28;20461;-69
2021/07/14 05:10:58;;;;;;;13.73;12.53;;;18.60;99.90;;;;;;5013271;28;20581;-70
2021/07/14 05:13:26;;;;;;;13.00;11.83;;;18.60;99.90;;;;;;5007601;28;20940;-71
2021/07/14 05:15:55;;;;;;;12.20;11.10;;;18.70;99.90;;;;;;4997747;28;20464;-70
2021/07/14 05:18:22;;;;;;;13.00;11.83;;;18.70;99.90;;;;;;4997315;28;20469;-69
2021/07/14 05:20:49;;;;;;;11.73;10.73;;;18.80;99.90;;;;;;4997590;28;20450;-72
2021/07/14 05:23:16;;;;;;;11.23;10.23;;;18.90;99.90;;;;;;4997308;28;20476;-75
2021/07/14 05:25:44;;;;;;;13.47;11.27;;;18.80;99.90;;;;;;4997874;28;20505;-74
2021/07/14 05:28:11;;;;;;;13.07;11.97;;;18.80;99.90;;;;;;4997407;28;20468;-74
2021/07/14 05:30:40;;;;;;;12.77;11.77;;;18.80;99.90;;;;;;4997010;28;20521;-74
2021/07/14 05:33:07;;;;;;;13.10;12.00;;;18.80;99.90;;;;;;4997361;28;20527;-75
2021/07/14 05:35:34;;;;;;;13.10;12.00;;;18.80;99.90;;;;;;4999220;28;20469;-74
2021/07/14 05:38:01;;;;;;;13.70;12.50;;;18.80;99.90;;;;;;5000810;28;20495;-73
2021/07/14 05:40:28;;;;;;;14.57;13.20;;;18.80;99.90;;;;;;4997578;28;20760;-74
2021/07/14 05:42:55;;;;;;;13.67;12.47;;;18.80;99.90;;;;;;5001021;28;20442;-72
2021/07/14 05:45:24;;;;;;;13.43;12.33;;;18.90;99.90;;;;;;5001052;28;20501;-69
2021/07/14 05:47:53;;;;;;;14.73;13.53;;;18.80;99.90;;;;;;5000568;28;20473;-68
2021/07/14 05:50:20;;;;;;;16.03;14.63;;;18.80;99.90;;;;;;5000434;28;20446;-69
2021/07/14 05:52:49;;;;;;;15.80;14.50;;;18.80;99.90;;;;;;5000373;28;20472;-69
2021/07/14 05:55:16;;;;;;;17.83;16.33;;;18.80;99.90;;;;;;5000856;28;20500;-69
2021/07/14 05:57:43;;;;;;;16.93;15.43;;;18.90;99.90;;;;;;5000312;28;20472;-69
2021/07/14 06:00:14;;;;;;;18.67;17.00;;;18.90;99.90;;;;;;5013116;28;20442;-70
2021/07/14 06:02:41;;;;;;;18.77;17.07;;;18.90;99.90;;;;;;5015838;28;20439;-70
2021/07/14 06:05:12;;;;;;;19.50;17.80;;;18.90;99.90;;;;;;4995159;28;20534;-71
2021/07/14 06:07:39;;;;;;;19.90;18.30;;;18.90;99.90;;;;;;5012518;28;20954;-70
2021/07/14 06:10:08;;;;;;;18.10;16.50;;;19.00;99.90;;;;;;5016365;28;20534;-71
2021/07/14 06:12:35;;;;;;;18.13;16.63;;;19.00;99.90;;;;;;5017635;28;20466;-71
2021/07/14 06:15:02;;;;;;;16.27;14.97;;;19.00;99.90;;;;;;5019008;28;20463;-70
2021/07/14 06:17:29;;;;;;;17.53;16.03;;;19.10;99.90;;;;;;5019081;28;20483;-69
2021/07/14 06:19:56;;;;;;;17.30;15.80;;;19.00;99.90;;;;;;4999979;28;20473;-70
2021/07/14 06:22:25;;;;;;;17.90;16.30;;;19.00;99.90;;;;;;5006010;28;20886;-69
2021/07/14 06:24:55;;;;;;;18.53;16.83;;;19.00;99.90;;;;;;4993857;28;20530;-70
2021/07/14 06:27:22;;;;;;;18.40;16.80;;;19.00;99.90;;;;;;5000658;28;20869;-69
2021/07/14 06:29:50;;;;;;;20.03;18.23;;;19.00;99.90;;;;;;5012977;28;20875;-73
2021/07/14 06:32:17;;;;;;;19.20;17.40;;;19.00;99.90;;;;;;5018377;28;20574;-71
2021/07/14 06:34:44;;;;;;;20.53;18.63;;;19.00;99.90;;;;;;5018920;28;20472;-69
2021/07/14 06:37:14;;;;;;;18.57;16.83;;;18.90;99.90;;;;;;5018812;28;20468;-69
2021/07/14 06:39:42;;;;;;;19.13;17.33;;;18.90;99.90;;;;;;5017866;28;20472;-68
2021/07/14 06:42:13;;;;;;;19.60;17.87;;;18.80;99.90;;;;;;5018129;28;20446;-68
2021/07/14 06:44:45;;;;;;;20.33;18.47;;;18.90;99.90;;;;;;5018917;28;20499;-69
2021/07/14 06:47:34;;;;;;;17.30;15.70;;;19.00;99.90;;;;;;5016881;28;20902;-69
2021/07/14 06:50:04;;;;;;;17.17;15.67;;;19.00;99.90;;;;;;5011923;28;20515;-69
2021/07/14 06:52:32;;;;;;;18.53;16.83;;;19.00;99.90;;;;;;5016957;28;20492;-70
2021/07/14 06:55:03;;;;;;;18.37;16.67;;;19.00;99.90;;;;;;5014217;28;20518;-69
2021/07/14 06:57:31;;;;;;;16.60;15.10;;;19.00;99.90;;;;;;4999976;28;20465;-70
2021/07/14 07:00:00;;;;;;;14.83;13.57;;;19.10;99.90;;;;;;5008203;28;20868;-69
2021/07/14 07:02:28;;;;;;;14.90;13.70;;;19.00;99.90;;;;;;5017510;28;20471;-72
2021/07/14 07:04:55;;;;;;;14.37;13.10;;;19.00;99.90;;;;;;4992555;28;20457;-70
2021/07/14 07:07:22;;;;;;;15.50;14.20;;;19.00;99.90;;;;;;4998842;28;20450;-68
2021/07/14 07:09:49;;;;;;;16.63;15.20;;;19.00;99.90;;;;;;4998845;28;20892;-72
2021/07/14 07:12:18;;;;;;;16.70;15.30;;;19.00;99.90;;;;;;4998918;28;20490;-72
2021/07/14 07:14:45;;;;;;;14.50;13.30;;;19.10;99.90;;;;;;4998783;28;20764;-71
2021/07/14 07:17:15;;;;;;;14.00;12.90;;;19.20;99.90;;;;;;4999191;28;20786;-73
2021/07/14 07:19:42;;;;;;;14.90;13.60;;;19.20;99.90;;;;;;4998923;28;21120;-72
2021/07/14 07:22:09;;;;;;;11.60;10.50;;;19.20;99.90;;;;;;5007555;28;20483;-71
2021/07/14 07:24:36;;;;;;;5.60;5.10;;;19.20;99.90;;;;;;5017568;28;20534;-72
2021/07/14 07:27:06;;;;;;;3.37;3.13;;;18.80;99.90;;;;;;5017883;28;20500;-73
2021/07/14 07:29:35;;;;;;;3.03;2.73;;;18.50;99.90;;;;;;5006697;28;20468;-74
2021/07/14 07:32:02;;;;;;;2.70;2.50;;;18.40;99.90;;;;;;4997778;28;20900;-73
2021/07/14 07:34:32;;;;;;;2.60;2.40;;;18.30;99.90;;;;;;5013999;28;20481;-76
2021/07/14 07:37:02;;;;;;;2.53;2.33;;;18.20;99.90;;;;;;5017654;28;20558;-76
2021/07/14 07:39:32;;;;;;;2.20;1.90;;;18.10;99.90;;;;;;5006017;28;20464;-73
2021/07/14 07:42:02;;;;;;;3.27;2.70;;;18.10;99.90;;;;;;4998300;28;20469;-73
2021/07/14 07:44:30;;;;;;;5.70;2.63;;;18.00;99.90;;;;;;4998655;28;20469;-73
2021/07/14 07:47:01;;;;;;;4.87;2.70;;;17.90;99.90;;;;;;4998867;28;20872;-74
2021/07/14 07:49:28;;;;;;;2.40;2.20;;;17.90;99.90;;;;;;4999348;28;20476;-76
2021/07/14 07:51:55;;;;;;;2.33;2.00;;;17.80;99.90;;;;;;4999301;28;20476;-75
2021/07/14 07:54:22;;;;;;;3.33;2.47;;;17.70;99.90;;;;;;4998874;28;20448;-75
2021/07/14 07:56:49;;;;;;;2.10;1.90;;;17.70;99.90;;;;;;5009857;28;20739;-77
2021/07/14 07:59:16;;;;;;;1.90;1.80;;;17.60;99.90;;;;;;5008183;28;20797;-73
2021/07/14 08:01:43;;;;;;;2.83;2.40;;;17.60;99.90;;;;;;4998660;28;20528;-72
2021/07/14 08:04:12;;;;;;;2.53;2.33;;;17.50;99.90;;;;;;4989684;28;20532;-72
2021/07/14 08:06:39;;;;;;;2.20;2.00;;;17.60;99.90;;;;;;5003209;28;20967;-69
2021/07/14 08:09:10;;;;;;;2.70;2.50;;;17.60;99.90;;;;;;5001032;28;20467;-69
2021/07/14 08:11:37;;;;;;;2.60;2.40;;;17.70;99.90;;;;;;5017086;28;20541;-72
2021/07/14 08:14:07;;;;;;;2.47;2.27;;;17.80;99.90;;;;;;5015777;28;20491;-71
2021/07/14 08:16:34;;;;;;;2.63;1.97;;;17.80;99.90;;;;;;5000792;28;20447;-78
2021/07/14 08:19:05;;;;;;;1.87;1.77;;;17.70;99.90;;;;;;5015818;28;20471;-75
2021/07/14 08:21:36;;;;;;;2.70;2.40;;;17.80;99.90;;;;;;5013996;28;20457;-77
2021/07/14 08:24:03;;;;;;;2.37;2.17;;;17.70;99.90;;;;;;4998773;28;20473;-74
2021/07/14 08:26:30;;;;;;;3.70;2.27;;;17.70;99.90;;;;;;4998489;28;20571;-75
2021/07/14 08:28:58;;;;;;;4.27;2.23;;;17.80;99.90;;;;;;4997880;28;20523;-72
2021/07/14 08:31:25;;;;;;;1.90;1.67;;;17.90;99.90;;;;;;4997914;28;20472;-71
2021/07/14 08:33:56;;;;;;;4.57;2.57;;;17.90;99.90;;;;;;4998085;28;20473;-77
2021/07/14 08:36:23;;;;;;;4.37;2.77;;;17.90;99.90;;;;;;4998214;28;20913;-78
2021/07/14 08:38:54;;;;;;;2.30;2.10;;;17.90;99.90;;;;;;5015922;28;20958;-75
2021/07/14 08:41:27;;;;;;;2.37;2.17;;;17.90;99.90;;;;;;5017227;28;20522;-78
2021/07/14 08:43:57;;;;;;;2.90;2.70;;;17.90;99.90;;;;;;5016932;28;20442;-76
2021/07/14 08:46:25;;;;;;;2.83;2.63;;;17.70;99.90;;;;;;5000061;28;20500;-75
2021/07/14 08:48:52;;;;;;;4.80;2.40;;;17.80;99.90;;;;;;4991418;28;20470;-74
2021/07/14 08:51:20;;;;;;;2.20;2.00;;;17.90;99.90;;;;;;4991333;28;20924;-71
2021/07/14 08:53:50;;;;;;;10.53;9.53;;;17.80;99.90;;;;;;5001114;28;20469;-69
2021/07/14 08:56:18;;;;;;;6.53;5.87;;;17.90;99.90;;;;;;4995303;28;20472;-67
2021/07/14 08:58:45;;;;;;;3.40;3.10;;;18.00;99.90;;;;;;5010661;28;20516;-68
2021/07/14 09:01:12;;;;;;;3.10;2.90;;;18.10;99.90;;;;;;4989712;28;20547;-68
2021/07/14 09:03:40;;;;;;;2.77;2.37;;;18.20;99.90;;;;;;4982820;28;20940;-69
2021/07/14 09:06:08;;;;;;;2.90;2.70;;;18.20;99.90;;;;;;5001981;28;20496;-72
2021/07/14 09:08:37;;;;;;;2.43;2.17;;;18.20;99.90;;;;;;4997174;28;20440;-68
2021/07/14 09:11:05;;;;;;;3.90;2.57;;;18.20;99.90;;;;;;4995409;28;20568;-68
2021/07/14 09:13:35;;;;;;;2.90;2.27;;;18.20;99.90;;;;;;5000937;28;21001;-68
2021/07/14 09:16:03;;;;;;;2.90;2.63;;;18.30;99.90;;;;;;5020176;28;20460;-69
2021/07/14 09:18:31;;;;;;;4.10;2.93;;;18.30;99.90;;;;;;5020441;28;20467;-69
2021/07/14 09:21:14;;;;;;;2.80;2.23;;;18.40;99.90;;;;;;5019607;28;20438;-69
2021/07/14 09:23:41;;;;;;;3.23;2.93;;;18.30;99.90;;;;;;5015347;28;20473;-69
2021/07/14 09:26:11;;;;;;;3.03;2.70;;;18.30;99.90;;;;;;5018577;28;21041;-69
2021/07/14 09:28:40;;;;;;;2.87;2.67;;;18.30;99.90;;;;;;5007358;28;20926;-68
2021/07/14 09:31:12;;;;;;;3.00;2.80;;;18.30;99.90;;;;;;5019654;28;20464;-69
2021/07/14 09:33:43;;;;;;;3.10;2.80;;;18.30;99.90;;;;;;5020166;28;20570;-68
2021/07/14 09:36:10;;;;;;;3.70;3.30;;;18.30;99.90;;;;;;5018654;28;20467;-69
2021/07/14 09:38:39;;;;;;;2.70;2.50;;;18.30;99.90;;;;;;5004194;28;20524;-69
2021/07/14 09:41:08;;;;;;;4.43;2.80;;;18.40;99.90;;;;;;5017111;28;20471;-68
2021/07/14 09:43:41;;;;;;;3.80;3.40;;;18.30;99.90;;;;;;5009861;28;20477;-68
2021/07/14 09:46:10;;;;;;;4.50;3.93;;;18.40;99.90;;;;;;5001004;28;20916;-68
2021/07/14 09:48:40;;;;;;;3.37;2.77;;;18.40;99.90;;;;;;5001265;28;20468;-68
2021/07/14 09:51:09;;;;;;;3.27;2.60;;;18.50;99.90;;;;;;5000802;28;20468;-69
2021/07/14 09:53:39;;;;;;;2.90;2.60;;;18.50;99.90;;;;;;5000771;28;20826;-68
2021/07/14 09:56:14;;;;;;;2.57;2.37;;;18.50;99.90;;;;;;5011954;28;20472;-67
2021/07/14 09:58:43;;;;;;;2.80;2.37;;;18.50;99.90;;;;;;5015357;28;20465;-67
2021/07/14 10:01:13;;;;;;;2.13;1.93;;;18.50;99.90;;;;;;5007336;28;20464;-67
2021/07/14 10:03:49;;;;;;;2.60;2.20;;;18.50;99.90;;;;;;5003471;28;20537;-67
2021/07/14 10:06:25;;;;;;;3.23;2.73;;;18.40;99.90;;;;;;4998453;28;20493;-68
2021/07/14 10:08:53;;;;;;;2.90;2.17;;;18.40;99.90;;;;;;5000686;28;20439;-67
2021/07/14 10:11:23;;;;;;;2.50;2.30;;;18.40;99.90;;;;;;5005404;28;20904;-66
2021/07/14 10:14:02;;;;;;;2.73;2.40;;;18.50;99.90;;;;;;5007658;28;20543;-67
2021/07/14 10:16:31;;;;;;;3.50;2.60;;;18.70;99.90;;;;;;4995288;28;20471;-67
2021/07/14 10:19:13;;;;;;;2.47;2.27;;;18.70;99.90;;;;;;4999219;28;20469;-67
2021/07/14 10:21:43;;;;;;;3.90;2.30;;;18.50;99.90;;;;;;5002272;28;20885;-67
2021/07/14 10:24:15;;;;;;;4.37;2.10;;;18.30;99.90;;;;;;5000512;28;20464;-67
2021/07/14 10:26:47;;;;;;;2.83;2.33;;;18.40;99.90;;;;;;4999867;28;20475;-67
2021/07/14 10:29:18;;;;;;;3.17;2.87;;;18.20;99.90;;;;;;4999997;28;20818;-67
2021/07/14 10:31:48;;;;;;;5.30;4.50;;;18.30;99.90;;;;;;5000144;28;20719;-66
2021/07/14 10:34:18;;;;;;;3.37;2.70;;;18.30;99.90;;;;;;4999767;28;20469;-67
2021/07/14 10:36:50;;;;;;;3.10;2.80;;;18.40;99.90;;;;;;5000256;28;20564;-69
2021/07/14 10:39:19;;;;;;;2.90;2.67;;;18.50;99.90;;;;;;4999561;28;20443;-69
2021/07/14 10:41:51;;;;;;;2.90;2.60;;;18.60;99.90;;;;;;5018193;28;20831;-70
2021/07/14 10:44:21;;;;;;;2.70;2.37;;;18.50;99.90;;;;;;4994162;28;20474;-69
2021/07/14 10:46:52;;;;;;;2.57;2.20;;;18.60;99.90;;;;;;5006586;28;20950;-77
2021/07/14 10:49:19;;;;;;;2.70;1.93;;;18.50;99.90;;;;;;5018520;28;20472;-69
2021/07/14 10:51:46;;;;;;;1.90;1.70;;;18.50;99.90;;;;;;5017883;28;20479;-78
2021/07/14 10:54:14;;;;;;;2.10;1.77;;;18.50;99.90;;;;;;5012665;28;20506;-74
2021/07/14 10:56:46;;;;;;;2.43;2.23;;;18.50;99.90;;;;;;5000073;28;20492;-74
2021/07/14 10:59:15;;;;;;;2.87;1.87;;;18.50;99.90;;;;;;4999931;28;20567;-70
2021/07/14 11:01:46;;;;;;;3.00;1.93;;;18.40;99.90;;;;;;4999186;28;20480;-68
2021/07/14 11:04:32;;;;;;;2.23;2.03;;;18.30;99.90;;;;;;4990957;28;20885;-68
2021/07/14 11:07:02;;;;;;;1.93;1.60;;;18.20;99.90;;;;;;5005108;28;20495;-67
2021/07/14 11:09:33;;;;;;;2.30;2.10;;;18.30;99.90;;;;;;5017178;28;20439;-68
2021/07/14 11:12:02;;;;;;;2.13;1.97;;;18.30;99.90;;;;;;5017880;28;20492;-68
2021/07/14 11:14:35;;;;;;;2.80;2.23;;;18.20;99.90;;;;;;5011519;28;20468;-67
2021/07/14 11:17:05;;;;;;;2.50;2.00;;;18.40;99.90;;;;;;5016956;28;20459;-68
2021/07/14 11:19:49;;;;;;;2.20;1.60;;;18.20;99.90;;;;;;5017771;28;20475;-67
2021/07/14 11:22:39;;;;;;;2.33;2.13;;;18.30;99.90;;;;;;5014472;28;20464;-67
2021/07/14 11:25:28;;;;;;;2.77;2.43;;;18.40;99.90;;;;;;5017780;28;20492;-67
2021/07/14 11:28:07;;;;;;;1.93;1.73;;;18.40;99.90;;;;;;5017372;28;20553;-69
2021/07/14 11:30:40;;;;;;;2.57;2.37;;;18.30;99.90;;;;;;4994697;28;20524;-68
2021/07/14 11:33:10;;;;;;;2.07;1.87;;;18.30;99.90;;;;;;4997718;28;20491;-70
2021/07/14 11:35:44;;;;;;;2.80;2.27;;;18.30;99.90;;;;;;4999181;28;20473;-69
2021/07/14 11:38:21;;;;;;;2.87;1.97;;;18.40;99.90;;;;;;4998911;28;20539;-68
2021/07/14 11:40:49;;;;;;;2.90;2.10;;;18.40;99.90;;;;;;5016319;28;20468;-67
2021/07/14 11:43:25;;;;;;;4.10;3.70;;;18.30;99.90;;;;;;5017368;28;20468;-67
2021/07/14 11:45:58;;;;;;;3.57;2.80;;;18.30;99.90;;;;;;4991863;28;20522;-67
2021/07/14 11:48:32;;;;;;;2.70;2.50;;;18.30;99.90;;;;;;4992967;28;20941;-66
2021/07/14 11:51:01;;;;;;;3.00;2.80;;;18.40;99.90;;;;;;4998511;28;20472;-67
2021/07/14 11:53:45;;;;;;;6.83;2.90;;;18.40;99.90;;;;;;4998292;28;20799;-69
2021/07/14 11:56:18;;;;;;;4.30;3.90;;;18.40;99.90;;;;;;4998901;28;20848;-74
2021/07/14 11:59:00;;;;;;;4.57;2.97;;;18.40;99.90;;;;;;4998639;28;20473;-70
2021/07/14 12:02:05;;;;;;;4.03;3.23;;;18.40;99.90;;;;;;4998429;28;20473;-70
2021/07/14 12:04:37;;;;;;;5.40;3.70;;;18.40;99.90;;;;;;4991253;28;20748;-72
2021/07/14 12:07:12;;;;;;;4.47;4.00;;;18.50;99.90;;;;;;5000701;28;20499;-70
2021/07/14 12:09:45;;;;;;;4.53;4.07;;;18.50;99.90;;;;;;5015855;28;20459;-67
2021/07/14 12:12:30;;;;;;;4.67;3.97;;;18.50;99.90;;;;;;5016817;28;20474;-67
2021/07/14 12:14:56;;;;;;;6.40;4.13;;;18.60;99.90;;;;;;4992718;28;20469;-66
2021/07/14 12:17:26;;;;;;;4.33;3.80;;;18.60;99.90;;;;;;4998151;28;20464;-66
2021/07/14 12:19:59;;;;;;;5.33;4.83;;;18.60;99.90;;;;;;4998397;28;20743;-66
2021/07/14 12:22:31;;;;;;;5.47;4.97;;;18.60;99.90;;;;;;5006292;28;20442;-67
2021/07/14 12:25:01;;;;;;;6.50;5.50;;;18.50;99.90;;;;;;5016972;28;20825;-66
2021/07/14 12:27:30;;;;;;;6.70;6.10;;;18.60;99.90;;;;;;5016781;28;20475;-66
2021/07/14 12:30:00;;;;;;;8.70;6.83;;;18.60;99.90;;;;;;5016028;28;20539;-67
2021/07/14 12:32:35;;;;;;;39.57;31.60;;;18.50;99.90;;;;;;5016642;28;20534;-67
2021/07/14 12:35:09;;;;;;;40.73;32.87;;;18.60;99.90;;;;;;5016893;28;20558;-66
2021/07/14 12:37:41;;;;;;;9.07;8.23;;;18.70;99.90;;;;;;4999009;28;20443;-67
2021/07/14 12:40:10;;;;;;;5.87;5.37;;;18.60;99.90;;;;;;5008803;28;20463;-66
2021/07/14 12:42:45;;;;;;;3.47;3.03;;;18.40;99.90;;;;;;5016379;28;20892;-67
2021/07/14 12:45:25;;;;;;;3.10;2.57;;;18.40;99.90;;;;;;5019845;28;20895;-67
2021/07/14 12:47:53;;;;;;;2.33;2.13;;;18.30;99.90;;;;;;4997557;28;20871;-67
2021/07/14 12:50:23;;;;;;;2.87;2.53;;;18.30;99.90;;;;;;5001515;28;20468;-66
2021/07/14 12:52:55;;;;;;;2.10;1.93;;;18.20;99.90;;;;;;5001983;28;20775;-67
2021/07/14 12:55:28;;;;;;;2.30;2.10;;;18.20;99.90;;;;;;5001955;28;20893;-72
2021/07/14 12:58:02;;;;;;;3.53;2.53;;;18.20;99.90;;;;;;5001163;28;20543;-67